免费注册 忘记密码
 
域名竞价 域名买卖 帮助中心 积分集市

域名竞价-快速搜索

本站抢注成功_正在竞价中的域名 (8400) 条记录 [导出列表]

域名 长度 当前价格 域名简介 结束时间 剩余时间 操作
bison-raiL.com 10 ≈242 -- 2021-01-21 02:35:09 即将结束 [出价]
1908media.com 9 ≈128 -- 2021-01-21 02:35:09 即将结束 [出价]
phaymobiLe.com 10 ≈128 -- 2021-01-21 02:35:09 即将结束 [出价]
purepointkenneL.com 15 ≈905 -- 2021-01-21 02:35:09 即将结束 [出价]
mykurong.com 8 ≈128 -- 2021-01-21 02:35:09 即将结束 [出价]
topfLoorcoLosseo.com 16 ≈134 -- 2021-01-21 02:36:07 即将结束 [出价]
aLLenLottinger.com 14 ≈128 -- 2021-01-21 02:36:07 即将结束 [出价]
erroLstein.com 10 ≈128 -- 2021-01-21 02:36:07 即将结束 [出价]
fractaL3.com 8 ≈128 -- 2021-01-21 02:36:07 即将结束 [出价]
gstup.com 5 ≈128 -- 2021-01-21 02:36:07 即将结束 [出价]
kinetic2017.com 11 ≈128 -- 2021-01-21 02:36:07 即将结束 [出价]
LmicheLLeimages.com 15 ≈376 -- 2021-01-21 02:36:07 即将结束 [出价]
jsuhoustonaLumni.org 16 ≈74 -- 2021-01-21 02:36:07 即将结束 [出价]
montypython.net 11 291457 -- 2021-01-21 02:37:07 45秒 [出价]
x3bet.com 5 ≈818 -- 2021-01-21 02:37:07 45秒 [出价]
Lehongkorea.com 11 ≈134 -- 2021-01-21 02:37:07 45秒 [出价]
quietcoLor.com 10 ≈945 -- 2021-01-21 02:37:07 45秒 [出价]
woodrattradingco.com 16 ≈134 -- 2021-01-21 02:37:07 45秒 [出价]
haifarabbani.com 12 ≈128 -- 2021-01-21 02:37:07 45秒 [出价]
organicacnecures.com 16 ≈128 -- 2021-01-21 02:37:07 45秒 [出价]
thecoderzone.com 12 ≈128 -- 2021-01-21 02:37:07 45秒 [出价]
wcp24.com 5 ≈128 -- 2021-01-21 02:37:07 45秒 [出价]
kuunhoteLsukhumvit.com 18 ≈134 -- 2021-01-21 02:37:54 1分32秒 [出价]
centraL96fmjamaica.com 18 ≈128 -- 2021-01-21 02:38:07 1分45秒 [出价]
cfLengineersweek.com 16 ≈74 -- 2021-01-21 02:38:07 1分45秒 [出价]
grassfedbeefmt.com 14 ≈128 -- 2021-01-21 02:38:07 1分45秒 [出价]
Linntechgroup.com 13 ≈128 -- 2021-01-21 02:38:07 1分45秒 [出价]
neLsonviLLepoLice.com 17 ≈242 -- 2021-01-21 02:38:07 1分45秒 [出价]
saLesdot.net 8 ≈88 -- 2021-01-21 02:39:03 2分41秒 [出价]
cakmerotomotiv.com 14 ≈155 -- 2021-01-21 02:39:05 2分43秒 [出价]
hercuLesfibers.com 14 ≈134 -- 2021-01-21 02:39:05 2分43秒 [出价]
thecaLLingsirens.com 16 ≈369 -- 2021-01-21 02:39:05 2分43秒 [出价]
hg77998.com 7 ≈134 -- 2021-01-21 02:39:05 2分43秒 [出价]
cLix4you.com 8 ≈134 -- 2021-01-21 02:39:07 2分45秒 [出价]
ebookhack.com 9 ≈128 -- 2021-01-21 02:39:07 2分45秒 [出价]
jonasdesign.net 11 ≈188 -- 2021-01-21 02:39:07 2分45秒 [出价]
chatstick.net 9 ≈148 -- 2021-01-21 02:39:07 2分45秒 [出价]
shabebarat.com 10 ≈121 -- 2021-01-21 02:39:07 2分45秒 [出价]
summerweekLy.com 12 ≈134 -- 2021-01-21 02:39:07 2分45秒 [出价]
coLLegeame.. 21 ≈128 -- 2021-01-21 02:39:07 2分45秒 [出价]
cLgzc.com 5 ≈187 -- 2021-01-21 02:39:42 3分20秒 [出价]
emrt.com 4 9990 -- 2021-01-21 02:40:07 3分45秒 [出价]
computerfinancing.com 17 ≈704 -- 2021-01-21 02:40:07 3分45秒 [出价]
e-apLix.com 7 ≈128 -- 2021-01-21 02:40:07 3分45秒 [出价]
Ladybaga.com 8 ≈128 -- 2021-01-21 02:40:07 3分45秒 [出价]
swsproject.com 10 ≈128 -- 2021-01-21 02:41:07 4分45秒 [出价]
yboost.com 6 2667 -- 2021-01-21 02:41:07 4分45秒 [出价]
artesLaLy.com 9 ≈134 -- 2021-01-21 02:42:07 5分45秒 [出价]
cidigitaLmedia.com 14 ≈74 -- 2021-01-21 02:42:07 5分45秒 [出价]
akuapemkingdom.com 14 ≈128 -- 2021-01-21 02:42:07 5分45秒 [出价]
每页显示:[20] [50] [100] [200] [500